Sedalia, MO (65301)

10:19 AM CDT on October 25, 2014 (GMT -0500)
Rual subdivision | Change Station
CLOSE
Current Station
Personal Weather Station
Location: Sedalia, MO
Elevation: 843 ft
Nearby Weather Stations

Elev 843 ft 38.68 °N, 93.21 °W | Updated 10 minutes ago

Fog
Fog
66.4 °F
Feels Like 66.4 °F
N
1.1
Wind Variable Wind from SW

Today
High -- | Low -- °F
--% Chance of Precip.
Yesterday
High -- | Low -- °F
Precip. -- in
7:32 AM 6:21 PM
Waxing Crescent, 3% visible
Pressure 30.08 in
Visibility 1.5 miles
Clouds Overcast 400 ft
Dew Point 60 °F
Humidity 80%
Rainfall 0.00 in
Snow Depth Not available.
UV 1 out of 12
Pollen 2.40 out of 12
Air Quality Not available.
Flu Activity No Activity
SPECI KDMO 251507Z AUTO VRB03KT 1 1/2SM BR OVC004 17/16 A3008 RMK AO2 T01670156

More Conditions Fewer Conditions

Pressure 30.08 in
Visibility 1.5 miles
Clouds Overcast 400 ft
Dew Point 60 °F
Humidity 80%
Rainfall 0.00 in
Snow Depth Not available.
UV 1 out of 12
Pollen 2.40 out of 12
Air Quality Not available.
Flu Activity No Activity
SPECI KDMO 251507Z AUTO VRB03KT 1 1/2SM BR OVC004 17/16 A3008 RMK AO2 T01670156

More Conditions Fewer Conditions

10-Day Weather Forecast

Almanac

Astronomy

Oct. 25, 2014 Rise Set
Actual Time 7:32 AM CDT 6:21 PM CDT
Civil Twilight 7:05 AM CDT 6:48 PM CDT
Nautical Twilight 6:34 AM CDT 7:19 PM CDT
Astronomical Twilight 6:03 AM CDT 7:50 PM CDT
Moon 9:11 AM CDT 7:45 PM CDT
Length of Visible Light 11h 43m
Length of Day
10h 48m
Tomorrow will be 2m 19s shorter.
Waxing Crescent, 3% of the Moon is Illuminated
Today
Waxing Crescent
Oct 30
First Quarter
Nov 6
Full
Nov 14
Last Quarter
Nov 22
New

Today's Extremes

State Highs State Lows

Community

WunderPhotos

Upload Photos

1,764,869 photos uploaded!

Nearby

Snow Depth

Station Depth Elevation
No new snow has been reported.

Earthquake Activity

City Distance Mag. Time & Date
No recent earthquake activity has been reported nearby.
Minimum magnitude displayed is 2.5.

Coastal Water Temperatures

Place Temperature
No Stations Reporting

Nearby Weather Stations